Time;durP1;ratioP1;P1;durP2;ratioP2;P2;SDS_P1;SDS_P2;PMS_P1;PMS_P2;Temp;Humidity;BMP_temperature;BMP_pressure;BME280_temperature;BME280_humidity;BME280_pressure;Samples;Min_cycle;Max_cycle;Signal;HPM_P1;HPM_P2
2022/04/27 00:01:49;;;;;;;3.53;2.30;;;;;;;18.39;51.59;94563.91;5063218;28;20574;-73
2022/04/27 00:04:16;;;;;;;5.00;2.30;;;;;;;18.35;51.58;94562.72;5064529;28;20197;-74
2022/04/27 00:06:43;;;;;;;6.27;2.70;;;;;;;18.30;52.15;94562.47;5064727;28;20205;-75
2022/04/27 00:09:10;;;;;;;2.30;2.10;;;;;;;18.27;52.14;94563.66;5064857;28;20198;-73
2022/04/27 00:11:39;;;;;;;3.17;2.47;;;;;;;18.25;51.93;94565.63;5064877;28;20185;-73
2022/04/27 00:14:06;;;;;;;2.80;1.90;;;;;;;18.18;51.73;94561.41;5066693;28;20186;-74
2022/04/27 00:16:33;;;;;;;3.17;2.03;;;;;;;18.20;51.79;94570.56;5068083;28;20680;-73
2022/04/27 00:19:00;;;;;;;3.90;2.47;;;;;;;18.16;52.38;94568.53;5068550;28;20194;-75
2022/04/27 00:21:26;;;;;;;4.27;2.37;;;;;;;18.13;52.40;94568.91;5068463;28;20191;-74
2022/04/27 00:23:53;;;;;;;6.23;2.20;;;;;;;18.05;52.42;94564.69;5069098;28;20657;-73
2022/04/27 00:26:20;;;;;;;4.20;2.67;;;;;;;18.06;52.29;94566.28;5068657;28;20256;-72
2022/04/27 00:28:48;;;;;;;2.83;2.53;;;;;;;18.04;52.18;94565.66;5068609;28;20699;-73
2022/04/27 00:31:15;;;;;;;3.90;2.50;;;;;;;18.01;52.18;94566.84;5067892;28;20253;-72
2022/04/27 00:33:42;;;;;;;3.03;2.20;;;;;;;17.98;52.24;94569.00;5068404;28;20190;-72
2022/04/27 00:36:09;;;;;;;5.77;2.40;;;;;;;17.96;52.42;94568.34;5068315;28;20183;-73
2022/04/27 00:38:36;;;;;;;4.73;2.40;;;;;;;17.92;52.29;94569.72;5068193;28;20193;-73
2022/04/27 00:41:03;;;;;;;2.90;2.33;;;;;;;17.85;52.75;94561.91;5068608;28;20549;-73
2022/04/27 00:43:49;;;;;;;2.67;2.40;;;;;;;17.86;52.56;94573.06;5068303;28;20275;-73
2022/04/27 00:46:15;;;;;;;3.00;2.50;;;;;;;17.82;52.56;94575.22;5067750;28;20220;-75
2022/04/27 00:48:42;;;;;;;3.23;2.53;;;;;;;17.78;52.75;94568.81;5068143;28;20685;-73
2022/04/27 00:51:14;;;;;;;4.27;2.40;;;;;;;17.74;52.68;94570.94;5068567;28;20264;-72
2022/04/27 00:53:41;;;;;;;3.40;2.30;;;;;;;17.73;52.58;94568.53;5068081;28;20194;-73
2022/04/27 00:56:09;;;;;;;2.93;2.33;;;;;;;17.66;52.94;94563.31;5068313;28;20279;-72
2022/04/27 00:58:35;;;;;;;3.63;2.40;;;;;;;17.66;53.07;94563.31;5068488;28;20220;-72
2022/04/27 01:01:04;;;;;;;3.00;2.23;;;;;;;17.65;53.20;94569.44;5067362;28;20191;-71
2022/04/27 01:03:30;;;;;;;5.43;2.40;;;;;;;17.61;52.93;94570.00;5068054;28;20194;-71
2022/04/27 01:05:59;;;;;;;2.50;2.30;;;;;;;17.61;53.01;94575.97;5067537;28;20289;-73
2022/04/27 01:08:25;;;;;;;2.40;2.20;;;;;;;17.48;53.05;94557.72;5067530;28;20202;-74
2022/04/27 01:10:53;;;;;;;4.03;2.43;;;;;;;17.57;53.08;94566.97;5067898;28;20546;-72
2022/04/27 01:13:20;;;;;;;2.93;2.53;;;;;;;17.54;53.03;94569.94;5068146;28;20175;-73
2022/04/27 01:15:47;;;;;;;3.83;2.30;;;;;;;17.51;53.19;94565.94;5068124;28;20563;-72
2022/04/27 01:18:16;;;;;;;4.70;2.50;;;;;;;17.48;53.25;94568.88;5067990;28;20608;-72
2022/04/27 01:20:44;;;;;;;4.57;2.47;;;;;;;17.45;53.25;94566.66;5048883;28;20232;-72
2022/04/27 01:23:12;;;;;;;5.87;2.60;;;;;;;17.44;53.32;94566.84;5067493;28;20244;-73
2022/04/27 01:25:54;;;;;;;3.23;2.40;;;;;;;17.41;53.19;94569.81;5066800;28;20273;-75
2022/04/27 01:28:24;;;;;;;4.03;2.37;;;;;;;17.38;52.86;94568.38;5066820;28;20272;-73
2022/04/27 01:30:57;;;;;;;3.83;2.53;;;;;;;17.37;53.26;94560.81;5067021;28;20213;-73
2022/04/27 01:33:25;;;;;;;2.60;2.40;;;;;;;17.31;53.39;94562.31;5066684;28;20253;-73
2022/04/27 01:35:53;;;;;;;2.87;2.20;;;;;;;17.32;53.29;94560.56;5049754;28;20202;-75
2022/04/27 01:38:21;;;;;;;4.87;2.77;;;;;;;17.29;53.29;94559.94;5066548;28;20638;-73
2022/04/27 01:40:48;;;;;;;6.73;2.73;;;;;;;17.27;53.31;94567.09;5067151;28;20201;-73
2022/04/27 01:43:15;;;;;;;3.43;2.70;;;;;;;17.05;53.33;94527.47;5066980;28;20899;-74
2022/04/27 01:45:44;;;;;;;4.80;3.07;;;;;;;17.04;53.10;94532.81;5066735;28;20179;-73
2022/04/27 01:48:12;;;;;;;4.40;2.90;;;;;;;17.21;53.34;94560.03;5066591;28;20205;-73
2022/04/27 01:50:39;;;;;;;2.97;2.53;;;;;;;17.13;53.12;94549.81;5066568;28;20194;-72
2022/04/27 01:55:55;;;;;;;4.37;2.60;;;;;;;17.08;53.37;94557.31;5066612;28;20787;-75
2022/04/27 01:58:22;;;;;;;7.97;2.50;;;;;;;17.03;53.34;94549.28;5066931;28;20202;-75
2022/04/27 02:00:49;;;;;;;4.43;2.80;;;;;;;17.11;53.49;94558.72;5066393;28;20256;-75
2022/04/27 02:03:18;;;;;;;4.73;2.70;;;;;;;17.03;53.21;94546.72;5066613;28;20680;-74
2022/04/27 02:05:44;;;;;;;3.80;2.43;;;;;;;17.04;53.23;94556.84;5066657;28;20662;-74
2022/04/27 02:08:13;;;;;;;11.13;2.80;;;;;;;17.02;53.27;94550.28;5066121;28;20689;-74
2022/04/27 02:10:41;;;;;;;7.70;3.00;;;;;;;16.86;53.42;94530.59;5066418;28;20195;-73
2022/04/27 02:13:10;;;;;;;4.63;2.90;;;;;;;16.97;53.25;94550.81;5048186;28;20186;-74
2022/04/27 02:15:37;;;;;;;4.60;2.93;;;;;;;16.97;53.42;94557.78;5065891;28;20194;-75
2022/04/27 02:18:05;;;;;;;4.47;3.00;;;;;;;16.95;53.51;94555.34;5065868;28;20185;-73
2022/04/27 02:20:32;;;;;;;6.20;2.80;;;;;;;16.82;53.44;94536.31;5065303;28;20376;-74
2022/04/27 02:22:59;;;;;;;5.27;2.70;;;;;;;16.92;53.41;94558.28;5065517;28;20194;-74
2022/04/27 02:25:27;;;;;;;4.37;2.73;;;;;;;16.90;53.42;94568.00;5066205;28;20240;-73
2022/04/27 02:27:55;;;;;;;4.73;2.70;;;;;;;16.84;53.54;94550.66;5065029;28;20217;-73
2022/04/27 02:30:22;;;;;;;4.80;2.83;;;;;;;16.78;53.53;94552.16;5065144;28;20872;-73
2022/04/27 02:32:49;;;;;;;4.27;3.10;;;;;;;16.80;53.63;94560.53;5065100;28;20182;-73
2022/04/27 02:35:16;;;;;;;5.33;2.70;;;;;;;16.82;53.54;94562.13;5047119;28;20205;-73
2022/04/27 02:37:43;;;;;;;4.13;2.60;;;;;;;16.67;53.31;94541.47;5065062;28;20198;-72
2022/04/27 02:40:11;;;;;;;3.80;2.93;;;;;;;16.56;53.46;94535.75;5065254;28;20197;-74
2022/04/27 02:42:40;;;;;;;3.03;2.73;;;;;;;16.78;53.47;94567.66;5064926;28;20186;-74
2022/04/27 02:45:07;;;;;;;7.60;3.13;;;;;;;16.77;53.54;94562.69;5064537;28;20174;-73
2022/04/27 02:47:34;;;;;;;4.13;2.67;;;;;;;16.74;53.57;94560.44;5064593;28;20198;-74
2022/04/27 02:52:47;;;;;;;4.60;2.90;;;;;;;16.71;53.58;94566.75;5065426;28;20185;-74
2022/04/27 02:55:14;;;;;;;6.17;2.97;;;;;;;16.70;53.68;94562.53;5064320;28;20198;-73
2022/04/27 02:57:43;;;;;;;11.27;3.53;;;;;;;16.68;53.73;94564.53;5065027;28;20824;-73
2022/04/27 03:00:10;;;;;;;6.23;2.73;;;;;;;16.65;53.78;94562.28;5064464;28;20202;-73
2022/04/27 03:02:39;;;;;;;4.80;3.00;;;;;;;16.65;53.88;94561.50;5064895;28;20882;-75
2022/04/27 03:05:07;;;;;;;5.03;3.27;;;;;;;16.64;53.50;94557.31;5046957;28;20202;-73
2022/04/27 03:07:34;;;;;;;4.80;3.00;;;;;;;16.60;53.90;94558.63;5065270;28;20198;-72
2022/04/27 03:10:01;;;;;;;4.73;2.53;;;;;;;16.60;53.72;94556.84;5064106;28;20195;-75
2022/04/27 03:12:28;;;;;;;6.07;3.10;;;;;;;16.60;54.01;94562.03;5046540;28;20700;-74
2022/04/27 03:14:58;;;;;;;4.80;2.67;;;;;;;16.59;54.00;94559.63;5064436;28;20232;-74
2022/04/27 03:17:24;;;;;;;5.73;2.87;;;;;;;16.58;53.91;94564.00;5064730;28;20190;-72
2022/04/27 03:19:51;;;;;;;5.10;3.13;;;;;;;16.46;54.20;94555.09;5033292;28;565346;-73
2022/04/27 03:22:18;;;;;;;4.40;2.60;;;;;;;16.55;53.98;94572.09;5056721;28;20596;-73
2022/04/27 03:24:45;;;;;;;8.27;3.40;;;;;;;16.53;54.22;94572.25;5065028;28;20194;-75
2022/04/27 03:27:12;;;;;;;4.80;2.97;;;;;;;16.52;54.10;94578.38;5065251;28;20626;-72
2022/04/27 03:29:39;;;;;;;5.80;3.50;;;;;;;16.51;54.35;94573.41;5065119;28;20210;-73
2022/04/27 03:32:10;;;;;;;5.27;3.40;;;;;;;16.50;54.16;94585.53;5065921;28;20183;-73
2022/04/27 03:34:37;;;;;;;8.30;3.57;;;;;;;16.51;54.21;94583.75;5065036;28;20232;-74
2022/04/27 03:37:04;;;;;;;8.93;3.10;;;;;;;16.38;54.12;94566.28;5065365;28;20658;-73
2022/04/27 03:39:31;;;;;;;4.77;2.90;;;;;;;16.52;54.20;94587.91;5065289;28;20187;-72
2022/04/27 03:41:58;;;;;;;7.43;3.00;;;;;;;16.51;54.40;94586.31;5065083;28;20182;-73
2022/04/27 03:44:25;;;;;;;4.37;3.10;;;;;;;16.51;54.17;94594.06;5065214;28;20276;-74
2022/04/27 03:46:52;;;;;;;5.33;3.23;;;;;;;16.49;54.41;94588.25;5064939;28;20178;-74
2022/04/27 03:49:22;;;;;;;6.20;3.20;;;;;;;16.54;54.45;94583.41;5067541;28;20213;-73
2022/04/27 03:51:49;;;;;;;4.70;3.47;;;;;;;16.55;54.46;94596.13;5069387;28;20197;-74
2022/04/27 03:54:16;;;;;;;5.97;3.13;;;;;;;16.52;54.41;94595.66;5069283;28;20202;-72
2022/04/27 03:56:43;;;;;;;6.17;3.40;;;;;;;16.56;54.53;94610.63;5068368;28;20265;-74
2022/04/27 03:59:10;;;;;;;7.27;3.07;;;;;;;16.58;54.66;94607.06;5051229;28;20247;-73
2022/04/27 04:01:37;;;;;;;7.77;3.17;;;;;;;16.60;54.62;94608.50;5069129;28;20581;-73
2022/04/27 04:04:04;;;;;;;7.43;3.20;;;;;;;16.60;54.56;94608.50;5068813;28;20191;-74
2022/04/27 04:06:33;;;;;;;6.27;3.77;;;;;;;16.61;54.79;94604.13;5068707;28;20198;-73
2022/04/27 04:09:03;;;;;;;5.80;3.50;;;;;;;16.66;54.57;94614.72;5068835;28;20226;-73
2022/04/27 04:11:30;;;;;;;6.10;3.07;;;;;;;16.72;54.51;94622.63;5050154;28;20198;-73
2022/04/27 04:13:57;;;;;;;9.03;3.67;;;;;;;16.68;54.86;94608.41;5068943;28;20646;-73
2022/04/27 04:16:23;;;;;;;6.90;3.23;;;;;;;16.78;54.74;94621.09;5068933;28;20183;-74
2022/04/27 04:18:50;;;;;;;7.97;4.27;;;;;;;16.80;54.90;94626.91;5070982;28;20187;-74
2022/04/27 04:21:17;;;;;;;9.97;3.53;;;;;;;16.84;54.83;94628.16;5073061;28;20577;-74
2022/04/27 04:23:45;;;;;;;7.50;2.93;;;;;;;16.89;54.69;94632.78;5072403;28;20216;-72
2022/04/27 04:28:56;;;;;;;8.23;3.50;;;;;;;16.99;54.68;94635.88;5072433;28;20271;-74
2022/04/27 04:31:23;;;;;;;5.70;3.60;;;;;;;17.03;54.87;94634.56;5072729;28;20186;-73
2022/04/27 04:33:50;;;;;;;6.63;3.83;;;;;;;17.12;55.08;94630.91;5072528;28;20183;-74
2022/04/27 04:36:16;;;;;;;5.63;3.57;;;;;;;17.35;54.64;94638.53;5072584;28;20856;-74
2022/04/27 04:38:45;;;;;;;7.00;3.20;;;;;;;17.64;62.12;94639.47;5071959;28;20201;-74
2022/04/27 04:41:11;;;;;;;8.60;2.57;;;;;;;18.03;76.66;94632.13;5072581;28;20186;-71
2022/04/27 04:43:38;;;;;;;19.13;9.93;;;;;;;18.53;78.76;94651.09;5072135;28;20193;-71
2022/04/27 04:46:05;;;;;;;26.27;13.40;;;;;;;19.04;80.06;94650.88;5072471;28;20645;-73
2022/04/27 04:48:32;;;;;;;26.47;14.80;;;;;;;19.58;80.88;94641.53;5072242;28;20209;-72
2022/04/27 04:50:59;;;;;;;24.40;11.87;;;;;;;20.16;79.21;94646.28;5072329;28;20187;-75
2022/04/27 04:53:26;;;;;;;21.53;11.13;;;;;;;20.74;75.44;94643.94;5072300;28;20236;-72
2022/04/27 04:55:54;;;;;;;16.57;8.37;;;;;;;21.29;71.28;94649.66;5071711;28;20197;-71
2022/04/27 04:58:21;;;;;;;18.70;7.40;;;;;;;21.81;67.43;94653.06;5072612;28;20193;-74
2022/04/27 05:00:48;;;;;;;9.50;6.10;;;;;;;22.30;64.92;94664.63;5071026;28;20193;-74
2022/04/27 05:03:15;;;;;;;13.17;5.13;;;;;;;22.69;61.77;94652.31;5054102;28;20217;-78
2022/04/27 05:05:44;;;;;;;6.85;4.28;;;;;;;23.14;58.96;94665.97;5071718;28;20210;-79
2022/04/27 05:08:11;;;;;;;6.10;4.28;;;;;;;23.55;56.76;94667.16;5072062;28;20453;-79
2022/04/27 05:10:38;;;;;;;10.35;4.10;;;;;;;23.98;55.66;94669.66;5071985;28;20273;-73
2022/04/27 05:13:06;;;;;;;20.40;4.80;;;;;;;24.31;55.08;94659.75;5054433;28;20273;-75
2022/04/27 05:15:33;;;;;;;12.00;3.70;;;;;;;24.56;53.67;94634.25;5071140;28;20585;-75
2022/04/27 05:18:00;;;;;;;9.43;3.55;;;;;;;25.18;52.74;94667.88;5071896;28;20193;-76
2022/04/27 05:20:27;;;;;;;10.43;3.50;;;;;;;25.67;50.94;94653.41;5071655;28;20226;-75
2022/04/27 05:22:54;;;;;;;5.50;2.65;;;;;;;26.26;49.64;94658.47;5071649;28;20190;-75
2022/04/27 05:25:21;;;;;;;5.28;2.60;;;;;;;26.98;47.43;94665.66;5071346;28;20198;-75
2022/04/27 05:27:48;;;;;;;4.00;2.42;;;;;;;27.61;46.25;94663.66;5071727;28;20200;-75
2022/04/27 05:33:01;;;;;;;9.00;2.72;;;;;;;28.95;43.27;94665.50;5071767;28;20269;-78
2022/04/27 05:35:28;;;;;;;6.97;2.03;;;;;;;29.56;41.80;94666.94;5037094;28;20198;-75
2022/04/27 05:37:55;;;;;;;5.03;2.67;;;;;;;30.16;40.83;94669.03;5071221;28;20190;-76
2022/04/27 05:40:25;;;;;;;6.75;2.60;;;;;;;30.77;39.57;94675.47;5071324;28;20573;-75
2022/04/27 05:42:51;;;;;;;5.80;1.95;;;;;;;31.35;38.36;94674.09;5071096;28;20713;-74
2022/04/27 05:45:20;;;;;;;6.53;2.63;;;;;;;31.87;37.66;94670.25;5071719;28;20256;-74
2022/04/27 05:47:47;;;;;;;5.72;2.28;;;;;;;32.47;36.51;94678.91;5071195;28;20623;-74
2022/04/27 05:50:14;;;;;;;10.38;2.55;;;;;;;33.00;35.36;94674.84;5071710;28;20221;-76
2022/04/27 05:52:49;;;;;;;7.32;2.85;;;;;;;33.52;35.02;94676.72;5070974;28;20657;-78
2022/04/27 05:55:15;;;;;;;8.32;2.83;;;;;;;34.01;34.02;94680.13;5071444;28;20564;-77
2022/04/27 05:57:42;;;;;;;4.20;2.20;;;;;;;34.46;33.06;94684.03;5070846;28;20580;-78
2022/04/27 06:00:10;;;;;;;5.50;2.67;;;;;;;34.89;32.30;94687.38;5072110;28;20208;-76
2022/04/27 06:02:39;;;;;;;10.57;2.85;;;;;;;35.32;31.77;94681.06;5072182;28;20236;-78
2022/04/27 06:05:07;;;;;;;4.85;2.78;;;;;;;35.71;31.27;94683.31;5070998;28;20186;-77
2022/04/27 06:07:36;;;;;;;6.90;2.90;;;;;;;36.08;30.98;94684.16;5070750;28;20549;-78
2022/04/27 06:10:03;;;;;;;4.63;2.70;;;;;;;36.43;30.09;94694.03;5071108;28;20249;-78
2022/04/27 06:12:35;;;;;;;9.30;2.75;;;;;;;36.74;29.81;94688.03;5070513;28;20628;-74
2022/04/27 06:15:02;;;;;;;5.63;2.97;;;;;;;37.14;29.29;94688.16;5070702;28;20871;-77
2022/04/27 06:17:29;;;;;;;8.00;2.85;;;;;;;37.33;28.88;94663.94;5068673;28;20190;-78
2022/04/27 06:19:57;;;;;;;8.88;2.90;;;;;;;37.77;28.37;94688.91;5070045;28;20226;-76
2022/04/27 06:22:24;;;;;;;7.07;2.60;;;;;;;37.95;27.73;94665.72;5070255;28;20190;-77
2022/04/27 06:24:52;;;;;;;5.60;3.15;;;;;;;38.31;27.64;94673.50;5070540;28;20202;-75
2022/04/27 06:27:19;;;;;;;9.93;3.25;;;;;;;38.55;27.43;94673.81;5069894;28;20194;-75
2022/04/27 06:29:45;;;;;;;6.18;3.17;;;;;;;38.94;27.07;94688.13;5070429;28;20211;-76
2022/04/27 06:32:12;;;;;;;7.35;2.97;;;;;;;39.21;26.71;94689.69;5052434;28;20194;-75
2022/04/27 06:34:39;;;;;;;6.72;3.17;;;;;;;39.44;26.58;94681.41;5069934;28;20653;-75
2022/04/27 06:37:07;;;;;;;9.18;3.25;;;;;;;39.71;26.33;94682.91;5069837;28;20190;-75
2022/04/27 06:39:38;;;;;;;5.20;2.88;;;;;;;40.01;26.05;94691.72;5070229;28;20217;-75
2022/04/27 06:42:05;;;;;;;5.65;3.20;;;;;;;40.20;25.46;94683.25;5070078;28;20202;-75
2022/04/27 06:44:35;;;;;;;8.63;3.45;;;;;;;40.43;25.37;94697.91;5070376;28;20182;-75
2022/04/27 06:47:02;;;;;;;6.20;3.00;;;;;;;40.60;24.86;94686.31;5069489;28;20673;-74
2022/04/27 06:49:31;;;;;;;12.25;3.72;;;;;;;40.80;24.64;94695.41;5052128;28;20645;-75
2022/04/27 06:51:58;;;;;;;8.68;3.22;;;;;;;40.98;24.29;94693.38;5069912;28;20186;-76
2022/04/27 06:54:26;;;;;;;7.38;3.30;;;;;;;41.15;24.17;94695.09;5066063;28;20289;-77
2022/04/27 06:56:53;;;;;;;10.68;3.30;;;;;;;41.29;24.15;94687.56;5067547;28;20943;-74
2022/04/27 06:59:19;;;;;;;8.95;3.25;;;;;;;41.43;24.07;94698.00;5069067;28;20202;-74
2022/04/27 07:01:46;;;;;;;6.55;3.58;;;;;;;41.54;23.63;94697.25;5068982;28;20189;-74
2022/04/27 07:04:13;;;;;;;7.57;3.65;;;;;;;41.67;23.99;94697.22;5069010;28;20652;-75
2022/04/27 07:06:40;;;;;;;6.57;2.90;;;;;;;41.77;23.26;94691.41;5068533;28;20579;-77
2022/04/27 07:09:10;;;;;;;3.45;2.80;;;;;;;41.86;23.73;94689.44;5068636;28;20226;-76
2022/04/27 07:11:40;;;;;;;5.32;3.63;;;;;;;41.95;23.38;94683.94;5066686;28;20186;-75
2022/04/27 07:14:07;;;;;;;6.70;3.38;;;;;;;42.04;22.98;94687.28;5068923;28;20198;-75
2022/04/27 07:16:34;;;;;;;8.82;3.17;;;;;;;42.11;22.87;94690.19;5069050;28;20600;-77
2022/04/27 07:19:01;;;;;;;7.90;3.45;;;;;;;42.18;22.77;94685.00;5065533;28;20208;-76
2022/04/27 07:21:27;;;;;;;4.40;3.00;;;;;;;41.89;22.94;94629.66;5032375;28;20620;-76
2022/04/27 07:23:56;;;;;;;3.05;2.72;;;;;;;42.29;22.56;94688.81;5032572;28;20654;-78
2022/04/27 07:26:23;;;;;;;5.55;3.67;;;;;;;42.41;22.78;94679.94;5036002;28;20195;-76
2022/04/27 07:28:51;;;;;;;7.65;3.42;;;;;;;42.47;22.60;94685.88;5030056;28;20187;-78
2022/04/27 07:31:18;;;;;;;5.75;3.30;;;;;;;42.51;22.98;94690.22;5030131;28;20188;-78
2022/04/27 07:33:45;;;;;;;7.35;3.33;;;;;;;42.56;22.31;94684.59;5034514;28;20183;-76
2022/04/27 07:36:12;;;;;;;10.20;3.28;;;;;;;42.59;22.48;94686.59;5031246;28;20692;-76
2022/04/27 07:38:39;;;;;;;9.07;3.72;;;;;;;42.50;22.45;94669.84;5034685;28;20222;-77
2022/04/27 07:41:06;;;;;;;3.35;3.05;;;;;;;42.59;22.22;94683.91;5030195;28;20191;-78
2022/04/27 07:43:40;;;;;;;5.82;3.78;;;;;;;42.62;22.29;94682.47;5031090;28;20191;-77
2022/04/27 07:46:16;;;;;;;7.43;3.30;;;;;;;42.61;21.96;94688.94;5027810;28;20201;-75
2022/04/27 07:49:00;;;;;;;7.90;3.55;;;;;;;42.57;22.26;94686.16;5028612;28;20203;-77
2022/04/27 07:51:27;;;;;;;7.95;3.10;;;;;;;42.14;22.25;94626.88;5027584;28;20196;-77
2022/04/27 07:53:54;;;;;;;6.47;3.63;;;;;;;42.45;21.95;94672.78;5028778;28;20203;-76
2022/04/27 07:56:21;;;;;;;8.30;3.10;;;;;;;42.45;21.89;94680.06;5028812;28;20195;-77
2022/04/27 07:58:47;;;;;;;5.47;3.13;;;;;;;42.38;22.14;94675.25;5028300;28;20184;-74
2022/04/27 08:01:16;;;;;;;6.70;3.38;;;;;;;42.30;22.44;94673.47;5028570;28;20664;-75
2022/04/27 08:03:43;;;;;;;5.25;3.47;;;;;;;42.24;22.02;94678.31;5028169;28;20609;-76
2022/04/27 08:06:10;;;;;;;7.15;3.47;;;;;;;42.17;22.11;94674.59;5009058;28;20663;-74
2022/04/27 08:08:45;;;;;;;5.05;3.05;;;;;;;42.08;22.65;94677.41;5028751;28;20577;-75
2022/04/27 08:11:13;;;;;;;7.55;3.83;;;;;;;42.00;22.27;94675.63;5028016;28;20685;-76
2022/04/27 08:13:40;;;;;;;8.57;3.20;;;;;;;41.86;22.42;94670.63;5028951;28;20194;-77
2022/04/27 08:16:07;;;;;;;6.72;3.10;;;;;;;41.79;22.20;94673.03;5010635;28;20202;-77
2022/04/27 08:18:36;;;;;;;4.47;3.35;;;;;;;41.67;22.68;94678.41;5028044;28;20654;-77
2022/04/27 08:21:16;;;;;;;7.38;3.08;;;;;;;41.58;22.20;94682.03;5066183;28;20229;-76
2022/04/27 08:23:44;;;;;;;5.05;3.38;;;;;;;41.44;22.38;94678.06;5068446;28;20212;-75
2022/04/27 08:26:12;;;;;;;4.55;3.03;;;;;;;41.29;22.82;94666.84;5068324;28;20186;-75
2022/04/27 08:28:39;;;;;;;5.22;3.08;;;;;;;41.16;22.34;94664.50;5067820;28;20592;-74
2022/04/27 08:31:07;;;;;;;3.45;2.80;;;;;;;41.01;22.33;94665.91;5066922;28;20225;-73
2022/04/27 08:33:36;;;;;;;5.35;3.25;;;;;;;40.86;22.58;94667.28;5068283;28;20229;-76
2022/04/27 08:36:04;;;;;;;3.80;3.30;;;;;;;40.71;22.90;94660.63;5071696;28;20197;-75
2022/04/27 08:38:33;;;;;;;4.55;2.75;;;;;;;40.53;22.75;94656.53;5053748;28;20190;-74
2022/04/27 08:41:00;;;;;;;5.80;3.38;;;;;;;40.41;22.89;94654.56;5069322;28;20213;-76
2022/04/27 08:43:28;;;;;;;5.68;2.97;;;;;;;40.16;22.83;94647.50;5071244;28;20226;-74
2022/04/27 08:45:56;;;;;;;5.78;3.13;;;;;;;40.08;23.00;94657.94;5050326;28;20217;-74
2022/04/27 08:48:23;;;;;;;4.15;2.72;;;;;;;39.87;23.29;94646.41;5053155;28;20193;-75
2022/04/27 08:50:52;;;;;;;5.88;2.95;;;;;;;39.43;23.13;94596.88;5071302;28;20225;-74
2022/04/27 08:53:19;;;;;;;5.57;3.28;;;;;;;39.17;23.10;94592.41;5071572;28;20194;-74
2022/04/27 08:55:46;;;;;;;4.93;3.03;;;;;;;39.36;23.17;94637.50;5071398;28;20207;-75
2022/04/27 08:58:15;;;;;;;4.97;3.08;;;;;;;39.06;23.34;94618.69;5069927;28;20194;-77
2022/04/27 09:00:43;;;;;;;5.03;2.63;;;;;;;39.02;23.27;94647.19;5069093;28;20194;-79
2022/04/27 09:03:24;;;;;;;5.28;3.05;;;;;;;38.82;23.65;94637.16;5068919;28;20285;-74
2022/04/27 09:05:54;;;;;;;6.78;2.80;;;;;;;38.62;23.82;94647.41;5069494;28;20194;-76
2022/04/27 09:08:24;;;;;;;4.82;2.60;;;;;;;38.44;23.61;94635.16;5065995;28;20201;-76
2022/04/27 09:11:15;;;;;;;5.32;3.05;;;;;;;38.25;23.67;94627.41;5066406;28;20232;-75
2022/04/27 09:13:45;;;;;;;3.20;2.55;;;;;;;38.03;23.68;94633.69;5068685;28;20661;-75
2022/04/27 09:16:12;;;;;;;5.03;2.65;;;;;;;37.88;23.84;94631.50;5068473;28;20638;-76
2022/04/27 09:22:00;;;;;;;3.33;3.03;;;;;;;37.43;24.28;94618.31;5068225;28;20272;-75
2022/04/27 09:24:28;;;;;;;4.95;2.20;;;;;;;37.21;24.01;94616.47;5068165;28;20673;-76
2022/04/27 09:27:02;;;;;;;5.40;2.72;;;;;;;37.00;24.26;94610.09;5050029;28;20696;-76
2022/04/27 09:29:29;;;;;;;3.25;2.80;;;;;;;36.86;24.25;94618.16;5066533;28;20190;-76
2022/04/27 09:31:57;;;;;;;4.88;2.42;;;;;;;36.66;24.55;94606.16;5068134;28;20190;-77
2022/04/27 09:34:31;;;;;;;5.68;2.90;;;;;;;36.50;24.73;94613.72;5049611;28;20285;-76
2022/04/27 09:37:14;;;;;;;2.88;2.55;;;;;;;36.19;24.89;94587.00;5034944;28;20190;-77
2022/04/27 09:39:42;;;;;;;6.43;2.80;;;;;;;36.14;24.89;94597.75;5068955;28;20205;-78
2022/04/27 09:42:14;;;;;;;6.25;2.72;;;;;;;35.96;25.16;94599.47;5052894;28;20244;-76
2022/04/27 09:44:45;;;;;;;4.30;2.78;;;;;;;35.77;25.15;94604.16;5051671;28;20193;-75
2022/04/27 09:47:12;;;;;;;5.53;3.00;;;;;;;35.58;25.27;94598.94;5069360;28;20195;-76
2022/04/27 09:49:46;;;;;;;9.07;3.28;;;;;;;35.36;25.53;94597.72;5070472;28;20198;-76
2022/04/27 09:52:16;;;;;;;5.78;3.10;;;;;;;35.06;25.29;94575.19;5070293;28;20201;-75
2022/04/27 09:54:44;;;;;;;3.88;2.80;;;;;;;34.98;25.99;94591.84;5068415;28;20903;-75
2022/04/27 09:57:16;;;;;;;3.63;2.65;;;;;;;34.79;25.92;94586.53;5069791;28;20564;-75
2022/04/27 09:59:44;;;;;;;6.32;2.58;;;;;;;34.62;26.22;94581.00;5070667;28;20294;-74
2022/04/27 10:02:13;;;;;;;5.55;2.58;;;;;;;34.44;26.44;94585.25;5068049;28;20248;-76
2022/04/27 10:04:42;;;;;;;9.15;3.28;;;;;;;34.15;26.38;94574.81;5070497;28;20286;-75
2022/04/27 10:07:13;;;;;;;6.65;2.80;;;;;;;34.04;26.39;94581.38;5069815;28;20202;-76
2022/04/27 10:09:42;;;;;;;5.82;3.10;;;;;;;33.86;26.56;94575.75;5052391;28;20194;-74
2022/04/27 10:12:11;;;;;;;7.40;3.00;;;;;;;33.65;27.11;94563.84;5069730;28;20319;-76
2022/04/27 10:14:39;;;;;;;5.78;2.88;;;;;;;33.56;26.72;94582.25;5069750;28;20194;-75
2022/04/27 10:17:08;;;;;;;6.50;3.17;;;;;;;33.39;26.89;94573.94;5051798;28;20316;-75
2022/04/27 10:19:36;;;;;;;4.45;2.67;;;;;;;33.10;27.01;94555.47;5069398;28;20232;-74
2022/04/27 10:22:05;;;;;;;6.45;2.80;;;;;;;33.07;27.51;94570.06;5069761;28;20198;-75
2022/04/27 10:24:50;;;;;;;6.43;2.85;;;;;;;32.80;27.33;94548.59;5069405;28;20256;-75
2022/04/27 10:27:19;;;;;;;4.93;2.67;;;;;;;32.76;27.43;94560.81;5047927;28;20236;-75
2022/04/27 10:29:48;;;;;;;7.60;2.88;;;;;;;32.47;27.69;94545.72;5069634;28;20198;-73
2022/04/27 10:32:35;;;;;;;6.50;3.05;;;;;;;32.39;27.95;94559.59;5069304;28;20187;-74
2022/04/27 10:35:17;;;;;;;5.63;2.97;;;;;;;32.19;28.02;94571.88;5067641;28;20190;-76
2022/04/27 10:37:46;;;;;;;6.20;3.05;;;;;;;32.00;28.00;94563.03;5069529;28;20198;-75
2022/04/27 10:40:29;;;;;;;4.28;2.97;;;;;;;31.80;28.34;94553.31;5069248;28;20226;-76
2022/04/27 10:43:02;;;;;;;5.60;3.17;;;;;;;31.69;28.58;94552.59;5070361;28;20194;-76
2022/04/27 10:45:55;;;;;;;5.50;3.25;;;;;;;31.50;28.31;94545.56;5050735;28;20182;-75
2022/04/27 10:48:24;;;;;;;9.20;2.75;;;;;;;31.33;28.79;94545.91;5070225;28;20205;-75
2022/04/27 10:50:56;;;;;;;6.55;3.17;;;;;;;31.17;29.23;94543.28;5068890;28;20217;-76
2022/04/27 10:53:26;;;;;;;6.60;3.05;;;;;;;31.07;29.32;94538.03;5067946;28;20273;-76
2022/04/27 10:55:57;;;;;;;3.47;2.88;;;;;;;30.96;29.16;94526.75;5069424;28;20201;-75
2022/04/27 10:58:30;;;;;;;6.70;3.08;;;;;;;30.86;29.67;94520.69;5068132;28;20197;-76
2022/04/27 11:01:18;;;;;;;4.63;3.22;;;;;;;30.74;29.57;94513.03;5066460;28;20194;-74
2022/04/27 11:03:53;;;;;;;3.47;2.45;;;;;;;30.66;29.77;94516.22;5069177;28;20190;-75
2022/04/27 11:06:21;;;;;;;7.80;3.00;;;;;;;30.56;29.58;94511.75;5069122;28;20600;-74
2022/04/27 11:09:00;;;;;;;3.15;2.83;;;;;;;30.48;29.95;94504.38;5068490;28;20201;-76
2022/04/27 11:11:30;;;;;;;4.93;2.80;;;;;;;30.39;30.13;94500.69;5068387;28;20217;-76
2022/04/27 11:14:01;;;;;;;3.58;2.67;;;;;;;30.33;30.10;94502.56;5066851;28;20185;-77
2022/04/27 11:16:28;;;;;;;5.43;2.83;;;;;;;30.27;29.96;94497.53;5068579;28;20187;-79
2022/04/27 11:18:56;;;;;;;6.43;2.58;;;;;;;30.19;30.08;94491.75;5068365;28;20186;-77
2022/04/27 11:21:26;;;;;;;5.20;2.45;;;;;;;30.14;30.13;94483.84;5068977;28;20217;-76
2022/04/27 11:23:54;;;;;;;7.63;2.63;;;;;;;30.09;30.75;94485.66;5051688;28;20194;-76
2022/04/27 11:26:21;;;;;;;6.25;3.17;;;;;;;30.04;30.56;94485.66;5068908;28;20186;-76
2022/04/27 11:28:52;;;;;;;5.90;2.67;;;;;;;29.95;30.40;94480.91;5050920;28;20562;-76
2022/04/27 11:31:20;;;;;;;6.00;2.92;;;;;;;29.77;31.09;94452.44;5069183;28;20210;-77
2022/04/27 11:33:48;;;;;;;2.95;2.65;;;;;;;29.84;30.79;94476.69;5069041;28;20201;-77
2022/04/27 11:36:22;;;;;;;5.22;2.67;;;;;;;29.83;30.70;94469.81;5068894;28;20284;-76
2022/04/27 11:38:50;;;;;;;6.18;2.45;;;;;;;29.64;30.94;94456.38;5066090;28;20225;-78
2022/04/27 11:41:18;;;;;;;3.28;2.63;;;;;;;29.70;30.73;94479.03;5069485;28;20198;-76
2022/04/27 11:43:46;;;;;;;4.75;2.35;;;;;;;29.61;30.70;94464.00;5066985;28;20202;-77
2022/04/27 11:46:15;;;;;;;5.63;2.28;;;;;;;29.54;31.03;94460.84;5068124;28;20202;-76
2022/04/27 11:48:47;;;;;;;4.97;2.15;;;;;;;29.39;30.95;94458.94;5068559;28;20292;-76
2022/04/27 11:51:14;;;;;;;5.25;2.42;;;;;;;29.37;31.02;94468.97;5068335;28;20215;-77
2022/04/27 11:53:47;;;;;;;6.25;2.58;;;;;;;29.29;31.47;94457.09;5068737;28;20620;-77